createdAt,value
2018-10-12T00:02:25.592Z,17.30
2018-10-12T00:04:53.126Z,17.30
2018-10-12T00:07:20.650Z,17.20
2018-10-12T00:09:48.149Z,17.20
2018-10-12T00:12:15.624Z,17.10
2018-10-12T00:14:43.176Z,17.10
2018-10-12T00:17:10.710Z,17.00
2018-10-12T00:19:38.182Z,17.00
2018-10-12T00:22:05.877Z,17.00
2018-10-12T00:24:33.360Z,17.00
2018-10-12T00:27:00.847Z,16.90
2018-10-12T00:29:28.484Z,16.90
2018-10-12T00:31:55.998Z,16.90
2018-10-12T00:34:23.620Z,16.80
2018-10-12T00:36:51.120Z,16.80
2018-10-12T00:39:18.708Z,16.80
2018-10-12T00:41:46.214Z,16.80
2018-10-12T00:44:13.710Z,16.70
2018-10-12T00:46:41.254Z,16.70
2018-10-12T00:49:09.186Z,16.70
2018-10-12T00:51:36.682Z,16.60
2018-10-12T00:54:04.165Z,16.60
2018-10-12T00:56:31.677Z,16.60
2018-10-12T00:58:59.196Z,16.60
2018-10-12T01:01:26.700Z,16.50
2018-10-12T01:03:54.212Z,16.50
2018-10-12T01:06:21.716Z,16.50
2018-10-12T01:08:49.290Z,16.50
2018-10-12T01:11:16.846Z,16.40
2018-10-12T01:13:44.388Z,16.40
2018-10-12T01:16:11.908Z,16.40
2018-10-12T01:18:39.464Z,16.40
2018-10-12T01:21:06.964Z,16.40
2018-10-12T01:23:34.488Z,16.30
2018-10-12T01:26:02.048Z,16.30
2018-10-12T01:28:29.653Z,16.30
2018-10-12T01:30:57.128Z,16.30
2018-10-12T01:33:24.636Z,16.30
2018-10-12T01:35:52.136Z,16.20
2018-10-12T01:38:19.616Z,16.30
2018-10-12T01:40:47.125Z,16.20
2018-10-12T01:43:14.652Z,16.20
2018-10-12T01:45:42.146Z,16.20
2018-10-12T01:48:09.708Z,16.20
2018-10-12T01:50:37.214Z,16.10
2018-10-12T01:53:04.793Z,16.10
2018-10-12T01:55:32.374Z,16.10
2018-10-12T01:57:59.887Z,16.00
2018-10-12T02:00:27.472Z,16.00
2018-10-12T02:02:54.989Z,16.00
2018-10-12T02:05:22.568Z,16.00
2018-10-12T02:07:50.050Z,15.90
2018-10-12T02:10:17.551Z,15.90
2018-10-12T02:12:45.033Z,15.90
2018-10-12T02:15:12.577Z,15.90
2018-10-12T02:17:40.093Z,15.80
2018-10-12T02:20:07.829Z,15.80
2018-10-12T02:22:35.317Z,15.70
2018-10-12T02:25:02.886Z,15.70
2018-10-12T02:27:30.395Z,15.70
2018-10-12T02:29:57.955Z,15.70
2018-10-12T02:32:25.508Z,15.70
2018-10-12T02:34:53.085Z,15.70
2018-10-12T02:37:20.559Z,15.60
2018-10-12T02:39:48.088Z,15.60
2018-10-12T02:42:15.573Z,15.60
2018-10-12T02:44:43.069Z,15.60
2018-10-12T02:47:10.587Z,15.60
2018-10-12T02:49:38.072Z,15.50
2018-10-12T02:52:05.730Z,15.50
2018-10-12T02:54:33.233Z,15.50
2018-10-12T02:57:00.723Z,15.50
2018-10-12T02:59:28.253Z,15.40
2018-10-12T03:01:55.748Z,15.40
2018-10-12T03:04:23.246Z,15.40
2018-10-12T03:06:50.767Z,15.30
2018-10-12T03:09:18.257Z,15.30
2018-10-12T03:11:45.765Z,15.30
2018-10-12T03:14:13.338Z,15.30
2018-10-12T03:16:40.835Z,15.30
2018-10-12T03:19:08.364Z,15.30
2018-10-12T03:21:35.869Z,15.30
2018-10-12T03:24:03.436Z,15.30
2018-10-12T03:26:30.939Z,15.30
2018-10-12T03:28:58.543Z,15.20
2018-10-12T03:31:26.161Z,15.20
2018-10-12T03:33:53.759Z,15.20
2018-10-12T03:36:21.387Z,15.20
2018-10-12T03:38:49.001Z,15.20
2018-10-12T03:41:16.473Z,15.20
2018-10-12T03:43:43.959Z,15.20
2018-10-12T03:46:11.471Z,15.20
2018-10-12T03:48:39.151Z,15.10
2018-10-12T03:51:06.753Z,15.10
2018-10-12T03:53:34.629Z,15.10
2018-10-12T03:56:02.172Z,15.10
2018-10-12T03:58:29.744Z,15.10
2018-10-12T04:00:57.242Z,15.10
2018-10-12T04:03:24.803Z,15.10
2018-10-12T04:05:52.305Z,15.10
2018-10-12T04:08:19.806Z,15.10
2018-10-12T04:10:47.285Z,15.10
2018-10-12T04:13:14.774Z,15.10
2018-10-12T04:15:42.289Z,15.00
2018-10-12T04:18:09.776Z,15.00
2018-10-12T04:20:37.320Z,15.00
2018-10-12T04:23:04.874Z,15.00
2018-10-12T04:25:32.350Z,15.00
2018-10-12T04:27:59.888Z,15.00
2018-10-12T04:30:27.405Z,15.00
2018-10-12T04:32:54.926Z,15.00
2018-10-12T04:35:22.469Z,14.90
2018-10-12T04:37:50.009Z,14.90
2018-10-12T04:41:27.860Z,14.90
2018-10-12T04:43:57.910Z,14.90
2018-10-12T04:46:28.468Z,14.90
2018-10-12T04:48:56.168Z,14.90
2018-10-12T04:51:27.915Z,14.80
2018-10-12T04:53:55.613Z,14.80
2018-10-12T04:56:23.079Z,14.80
2018-10-12T04:58:50.580Z,14.80
2018-10-12T05:01:18.198Z,14.80
2018-10-12T05:03:45.671Z,14.80
2018-10-12T05:06:13.194Z,14.80
2018-10-12T05:08:40.816Z,14.80
2018-10-12T05:11:08.452Z,14.80
2018-10-12T05:13:36.269Z,14.80
2018-10-12T05:16:04.665Z,14.80
2018-10-12T05:18:32.194Z,14.80
2018-10-12T05:21:00.813Z,14.80
2018-10-12T05:23:28.369Z,14.70
2018-10-12T05:25:55.927Z,14.70
2018-10-12T05:28:24.273Z,14.70
2018-10-12T05:30:51.805Z,14.70
2018-10-12T05:33:19.352Z,14.70
2018-10-12T05:35:46.848Z,14.70
2018-10-12T05:38:14.678Z,14.60
2018-10-12T05:40:42.417Z,14.60
2018-10-12T05:43:10.833Z,14.60
2018-10-12T05:45:38.285Z,14.70
2018-10-12T05:48:17.223Z,14.60
2018-10-12T05:50:44.856Z,14.60
2018-10-12T05:53:12.930Z,14.60
2018-10-12T05:55:40.575Z,14.60
2018-10-12T05:58:08.171Z,14.50
2018-10-12T06:00:35.713Z,14.50
2018-10-12T06:03:03.281Z,14.50
2018-10-12T06:05:36.488Z,14.50
2018-10-12T06:08:04.268Z,14.40
2018-10-12T06:10:31.822Z,14.50
2018-10-12T06:12:59.540Z,14.50
2018-10-12T06:15:27.161Z,14.50
2018-10-12T06:17:54.817Z,14.50
2018-10-12T06:20:22.375Z,14.50
2018-10-12T06:22:49.901Z,14.50
2018-10-12T06:25:17.445Z,14.50
2018-10-12T06:27:45.140Z,14.50
2018-10-12T06:30:12.925Z,14.50
2018-10-12T06:32:40.454Z,14.60
2018-10-12T06:35:07.945Z,14.60
2018-10-12T06:37:35.462Z,14.60
2018-10-12T06:40:03.025Z,14.60
2018-10-12T06:42:30.504Z,14.70
2018-10-12T06:44:58.011Z,14.70
2018-10-12T06:47:25.504Z,14.70
2018-10-12T06:49:53.015Z,14.70
2018-10-12T06:52:20.513Z,14.80
2018-10-12T06:54:48.032Z,14.90
2018-10-12T06:57:15.527Z,14.90
2018-10-12T06:59:43.059Z,15.00
2018-10-12T07:02:14.531Z,15.00
2018-10-12T07:04:42.203Z,15.10
2018-10-12T07:07:09.755Z,15.10
2018-10-12T07:09:37.241Z,15.20
2018-10-12T07:12:04.728Z,15.30
2018-10-12T07:14:32.225Z,15.30
2018-10-12T07:16:59.722Z,15.40
2018-10-12T07:19:27.247Z,15.50
2018-10-12T07:21:54.731Z,15.50
2018-10-12T07:24:22.193Z,15.60
2018-10-12T07:26:49.662Z,15.70
2018-10-12T07:29:17.155Z,15.80
2018-10-12T07:31:44.664Z,15.90
2018-10-12T07:34:12.205Z,16.00
2018-10-12T07:36:39.706Z,16.10
2018-10-12T07:39:08.083Z,16.20
2018-10-12T07:41:35.658Z,16.40
2018-10-12T07:44:03.147Z,16.50
2018-10-12T07:46:30.653Z,16.60
2018-10-12T07:48:58.137Z,16.60
2018-10-12T07:51:25.621Z,16.70
2018-10-12T07:53:53.167Z,16.80
2018-10-12T07:56:20.687Z,16.90
2018-10-12T07:58:48.161Z,17.00
2018-10-12T08:01:15.617Z,17.00
2018-10-12T08:03:43.216Z,17.10
2018-10-12T08:06:10.735Z,17.20
2018-10-12T08:08:38.201Z,17.30
2018-10-12T08:11:06.299Z,17.30
2018-10-12T08:13:34.035Z,17.40
2018-10-12T08:16:01.591Z,17.40
2018-10-12T08:18:29.235Z,17.50
2018-10-12T08:20:56.833Z,17.60
2018-10-12T08:23:24.331Z,17.70
2018-10-12T08:25:51.893Z,17.80
2018-10-12T08:28:19.768Z,17.80
2018-10-12T08:30:47.241Z,17.90
2018-10-12T08:33:14.788Z,17.90
2018-10-12T08:35:42.506Z,18.00
2018-10-12T08:38:10.916Z,18.00
2018-10-12T08:40:38.410Z,18.10
2018-10-12T08:43:06.162Z,18.10
2018-10-12T08:45:33.644Z,18.10
2018-10-12T08:48:01.166Z,18.20
2018-10-12T08:50:28.826Z,18.30
2018-10-12T08:52:56.328Z,18.40
2018-10-12T08:55:23.864Z,18.50
2018-10-12T08:57:51.336Z,18.50
2018-10-12T09:00:18.828Z,18.60
2018-10-12T09:02:46.376Z,18.60
2018-10-12T09:05:13.942Z,18.60
2018-10-12T09:07:41.440Z,18.60
2018-10-12T09:10:09.043Z,18.70
2018-10-12T09:12:37.010Z,18.70
2018-10-12T09:15:04.754Z,18.70
2018-10-12T09:17:32.354Z,18.70
2018-10-12T09:19:59.840Z,18.70
2018-10-12T09:22:27.352Z,18.70
2018-10-12T09:24:54.860Z,18.80
2018-10-12T09:27:22.382Z,18.90
2018-10-12T09:29:50.178Z,19.00
2018-10-12T09:32:17.758Z,19.00
2018-10-12T09:34:45.252Z,18.90
2018-10-12T09:37:12.732Z,19.00
2018-10-12T09:39:40.614Z,18.90
2018-10-12T09:42:07.802Z,18.90
2018-10-12T09:44:35.460Z,19.00
2018-10-12T09:47:03.004Z,19.00
2018-10-12T09:49:30.480Z,19.00
2018-10-12T09:51:57.948Z,19.10
2018-10-12T09:54:25.426Z,19.20
2018-10-12T09:56:58.452Z,19.30
2018-10-12T09:59:25.936Z,19.40
2018-10-12T10:01:59.134Z,19.50
2018-10-12T10:04:32.134Z,19.70
2018-10-12T10:07:00.814Z,19.80
2018-10-12T10:09:28.288Z,20.00
2018-10-12T10:11:56.136Z,20.20
2018-10-12T10:14:23.631Z,20.40
2018-10-12T10:16:51.130Z,20.50
2018-10-12T10:19:18.683Z,20.60
2018-10-12T10:21:46.116Z,20.70
2018-10-12T10:24:13.645Z,21.00
2018-10-12T10:26:41.147Z,21.30
2018-10-12T10:29:08.698Z,21.60
2018-10-12T10:31:36.215Z,21.80
2018-10-12T10:34:03.733Z,22.10
2018-10-12T10:36:31.226Z,22.20
2018-10-12T10:38:58.726Z,22.30
2018-10-12T10:41:26.201Z,22.20
2018-10-12T10:43:53.713Z,22.20
2018-10-12T10:46:21.323Z,22.10
2018-10-12T10:48:48.725Z,22.20
2018-10-12T10:51:16.678Z,22.10
2018-10-12T10:53:44.230Z,22.10
2018-10-12T10:56:11.663Z,22.20
2018-10-12T10:58:39.157Z,22.50
2018-10-12T11:01:06.724Z,22.70
2018-10-12T11:03:34.239Z,22.90
2018-10-12T11:06:01.733Z,22.90
2018-10-12T11:08:29.254Z,22.90
2018-10-12T11:10:56.737Z,23.00
2018-10-12T11:13:24.220Z,23.00
2018-10-12T11:15:51.744Z,23.10
2018-10-12T11:18:19.249Z,23.30
2018-10-12T11:20:46.759Z,23.20
2018-10-12T11:23:14.271Z,23.20
2018-10-12T11:25:41.772Z,23.30
2018-10-12T11:28:09.293Z,23.50
2018-10-12T11:30:36.751Z,23.70
2018-10-12T11:33:04.293Z,23.60
2018-10-12T11:35:31.812Z,23.90
2018-10-12T11:37:59.301Z,23.80
2018-10-12T11:40:26.817Z,23.60
2018-10-12T11:43:05.721Z,23.70
2018-10-12T11:45:33.305Z,23.90
2018-10-12T11:48:00.823Z,24.00
2018-10-12T11:50:28.323Z,24.20
2018-10-12T11:52:55.879Z,24.60
2018-10-12T11:55:23.370Z,24.80
2018-10-12T11:57:50.897Z,25.00
2018-10-12T12:00:18.447Z,25.40
2018-10-12T12:02:46.727Z,25.90
2018-10-12T12:05:14.289Z,26.40
2018-10-12T12:07:41.823Z,26.60
2018-10-12T12:10:10.337Z,26.70
2018-10-12T12:12:37.912Z,26.90
2018-10-12T12:15:05.575Z,26.70
2018-10-12T12:17:33.066Z,26.60
2018-10-12T12:20:00.555Z,26.70
2018-10-12T12:22:28.118Z,27.20
2018-10-12T12:24:55.628Z,27.50
2018-10-12T12:27:23.172Z,27.70
2018-10-12T12:29:50.672Z,28.10
2018-10-12T12:32:18.166Z,28.60
2018-10-12T12:34:45.776Z,28.30
2018-10-12T12:37:13.228Z,28.30
2018-10-12T12:39:40.694Z,28.60
2018-10-12T12:42:08.200Z,28.80
2018-10-12T12:44:35.767Z,28.60
2018-10-12T12:47:03.355Z,28.60
2018-10-12T12:49:31.056Z,28.60
2018-10-12T12:51:58.391Z,28.70
2018-10-12T12:54:26.488Z,28.50
2018-10-12T12:56:54.026Z,28.00
2018-10-12T12:59:21.524Z,28.10
2018-10-12T13:01:49.039Z,28.30
2018-10-12T13:04:16.574Z,28.40
2018-10-12T13:06:44.102Z,28.20
2018-10-12T13:09:11.607Z,28.20
2018-10-12T13:11:39.116Z,28.30
2018-10-12T13:14:06.666Z,28.70
2018-10-12T13:16:34.170Z,29.10
2018-10-12T13:19:01.644Z,29.00
2018-10-12T13:21:29.922Z,28.90
2018-10-12T13:23:57.426Z,28.90
2018-10-12T13:26:25.021Z,29.10
2018-10-12T13:28:52.449Z,29.20
2018-10-12T13:31:19.928Z,29.20
2018-10-12T13:33:47.475Z,29.20
2018-10-12T13:36:14.989Z,28.80
2018-10-12T13:38:42.498Z,28.10
2018-10-12T13:41:10.003Z,27.50
2018-10-12T13:43:37.499Z,27.00
2018-10-12T13:46:04.992Z,27.10
2018-10-12T13:48:32.480Z,27.40
2018-10-12T13:51:00.020Z,27.10
2018-10-12T13:53:27.908Z,27.20
2018-10-12T13:55:55.402Z,27.30
2018-10-12T13:58:22.866Z,27.70
2018-10-12T14:00:50.354Z,27.50
2018-10-12T14:03:17.875Z,27.40
2018-10-12T14:05:45.453Z,27.30
2018-10-12T14:08:13.300Z,26.90
2018-10-12T14:10:40.791Z,26.60
2018-10-12T14:13:08.272Z,26.70
2018-10-12T14:15:35.758Z,26.50
2018-10-12T14:18:03.313Z,26.40
2018-10-12T14:20:30.746Z,26.40
2018-10-12T14:22:58.228Z,26.40
2018-10-12T14:25:25.707Z,26.30
2018-10-12T14:27:53.199Z,26.40
2018-10-12T14:30:20.694Z,26.10
2018-10-12T14:32:48.409Z,26.10
2018-10-12T14:35:15.924Z,26.10
2018-10-12T14:37:43.427Z,26.00
2018-10-12T14:40:10.951Z,26.00
2018-10-12T14:42:38.460Z,26.10
2018-10-12T14:45:05.992Z,25.80
2018-10-12T14:47:33.825Z,25.70
2018-10-12T14:50:01.351Z,25.90
2018-10-12T14:52:28.877Z,26.00
2018-10-12T14:54:56.363Z,25.90
2018-10-12T14:57:23.855Z,25.70
2018-10-12T14:59:51.386Z,25.90
2018-10-12T15:02:19.398Z,26.00
2018-10-12T15:04:46.934Z,26.10
2018-10-12T15:07:14.548Z,26.10
2018-10-12T15:09:42.051Z,26.50
2018-10-12T15:12:09.644Z,27.00
2018-10-12T15:14:48.538Z,27.60
2018-10-12T15:17:16.067Z,28.00
2018-10-12T15:19:43.876Z,28.10
2018-10-12T15:22:11.903Z,28.30
2018-10-12T15:24:39.374Z,28.00
2018-10-12T15:27:06.892Z,27.80
2018-10-12T15:29:34.568Z,27.50
2018-10-12T15:32:02.186Z,27.20
2018-10-12T15:34:29.717Z,27.40
2018-10-12T15:36:57.191Z,27.80
2018-10-12T15:39:24.674Z,27.80
2018-10-12T15:41:52.221Z,27.70
2018-10-12T15:44:20.047Z,27.90
2018-10-12T15:46:47.547Z,27.60
2018-10-12T15:49:15.155Z,27.80
2018-10-12T15:51:42.645Z,27.70
2018-10-12T15:54:10.161Z,27.40
2018-10-12T15:56:37.704Z,26.80
2018-10-12T15:59:05.189Z,26.40
2018-10-12T16:01:32.691Z,26.00
2018-10-12T16:04:00.678Z,25.70
2018-10-12T16:06:28.265Z,25.40
2018-10-12T16:08:55.814Z,25.30
2018-10-12T16:11:23.777Z,25.20
2018-10-12T16:13:51.309Z,25.00
2018-10-12T16:16:18.822Z,24.90
2018-10-12T16:18:46.378Z,24.70
2018-10-12T16:21:13.919Z,24.50
2018-10-12T16:23:41.431Z,24.40
2018-10-12T16:26:17.453Z,24.20
2018-10-12T16:28:44.954Z,24.10
2018-10-12T16:31:12.485Z,24.10
2018-10-12T16:33:40.037Z,24.00
2018-10-12T16:36:07.641Z,23.80
2018-10-12T16:38:35.569Z,23.70
2018-10-12T16:41:03.399Z,23.60
2018-10-12T16:43:31.247Z,23.60
2018-10-12T16:45:58.855Z,23.50
2018-10-12T16:48:26.584Z,23.40
2018-10-12T16:50:54.357Z,23.20
2018-10-12T16:53:21.855Z,23.20
2018-10-12T16:55:49.387Z,23.10
2018-10-12T16:58:16.960Z,23.00
2018-10-12T17:00:44.536Z,22.90
2018-10-12T17:03:12.434Z,22.80
2018-10-12T17:05:40.337Z,22.70
2018-10-12T17:08:08.191Z,22.60
2018-10-12T17:10:36.593Z,22.50
2018-10-12T17:13:04.376Z,22.40
2018-10-12T17:15:32.132Z,22.40
2018-10-12T17:18:00.851Z,22.40
2018-10-12T17:20:29.021Z,22.30
2018-10-12T17:22:56.672Z,22.20
2018-10-12T17:25:25.246Z,22.10
2018-10-12T17:27:53.160Z,22.10
2018-10-12T17:30:21.003Z,22.00
2018-10-12T17:32:48.486Z,22.00
2018-10-12T17:35:16.526Z,21.90
2018-10-12T17:37:44.066Z,22.00
2018-10-12T17:40:11.710Z,22.00
2018-10-12T17:42:39.246Z,22.00
2018-10-12T17:45:07.950Z,22.00
2018-10-12T17:47:35.815Z,21.90
2018-10-12T17:50:03.529Z,21.80
2018-10-12T17:52:31.364Z,21.80
2018-10-12T17:54:58.905Z,21.80
2018-10-12T17:57:27.485Z,21.70
2018-10-12T17:59:55.409Z,21.70
2018-10-12T18:02:22.884Z,21.60
2018-10-12T18:04:51.298Z,21.50
2018-10-12T18:07:19.256Z,21.50
2018-10-12T18:09:47.357Z,21.50
2018-10-12T18:12:15.072Z,21.40
2018-10-12T18:14:43.014Z,21.40
2018-10-12T18:17:10.989Z,21.30
2018-10-12T18:19:38.769Z,21.30
2018-10-12T18:22:06.388Z,21.20
2018-10-12T18:24:33.901Z,21.20
2018-10-12T18:27:01.384Z,21.20
2018-10-12T18:29:28.880Z,21.20
2018-10-12T18:31:56.370Z,21.10
2018-10-12T18:34:23.892Z,21.10
2018-10-12T18:36:51.498Z,21.10
2018-10-12T18:39:18.932Z,21.10
2018-10-12T18:41:46.477Z,21.10
2018-10-12T18:44:13.993Z,21.10
2018-10-12T18:46:41.530Z,21.10
2018-10-12T18:49:09.072Z,21.10
2018-10-12T18:51:36.602Z,21.00
2018-10-12T18:54:04.176Z,21.00
2018-10-12T18:56:31.598Z,21.00
2018-10-12T18:58:59.206Z,21.00
2018-10-12T19:01:26.780Z,21.00
2018-10-12T19:03:54.376Z,21.00
2018-10-12T19:06:21.924Z,21.00
2018-10-12T19:08:49.456Z,21.00
2018-10-12T19:11:16.928Z,21.00
2018-10-12T19:13:44.503Z,21.00
2018-10-12T19:16:11.920Z,21.00
2018-10-12T19:18:39.514Z,21.00
2018-10-12T19:21:07.022Z,21.00
2018-10-12T19:23:36.068Z,20.90
2018-10-12T19:26:04.742Z,20.90
2018-10-12T19:28:32.920Z,20.90
2018-10-12T19:31:00.595Z,20.90
2018-10-12T19:33:28.265Z,20.80
2018-10-12T19:35:55.913Z,20.80
2018-10-12T19:38:23.607Z,20.80
2018-10-12T19:40:51.023Z,20.80
2018-10-12T19:43:18.613Z,20.70
2018-10-12T19:45:46.417Z,20.70
2018-10-12T19:53:31.625Z,20.70
2018-10-12T20:17:19.078Z,20.40
2018-10-12T20:19:46.622Z,20.40
2018-10-12T20:22:14.133Z,20.40
2018-10-12T20:24:41.745Z,20.40
2018-10-12T20:27:09.298Z,20.40
2018-10-12T20:29:36.801Z,20.40
2018-10-12T20:32:04.415Z,20.40
2018-10-12T20:34:31.917Z,20.30
2018-10-12T20:36:59.473Z,20.30
2018-10-12T20:39:27.041Z,20.30
2018-10-12T20:41:54.617Z,20.30
2018-10-12T20:44:22.174Z,20.20
2018-10-12T20:46:49.743Z,20.20
2018-10-12T20:49:17.225Z,20.20
2018-10-12T20:51:44.739Z,20.20
2018-10-12T20:54:12.329Z,20.20
2018-10-12T20:56:39.864Z,20.20
2018-10-12T20:59:07.441Z,20.20
2018-10-12T21:01:34.996Z,20.20
2018-10-12T21:04:02.689Z,20.10
2018-10-12T21:06:30.402Z,20.20
2018-10-12T21:08:57.899Z,20.10
2018-10-12T21:11:25.402Z,20.10
2018-10-12T21:13:53.020Z,20.10
2018-10-12T21:16:20.585Z,20.20
2018-10-12T21:18:48.118Z,20.20
2018-10-12T21:21:15.637Z,20.20
2018-10-12T21:23:43.134Z,20.20
2018-10-12T21:26:10.664Z,20.20
2018-10-12T21:28:38.227Z,20.20
2018-10-12T21:31:05.888Z,20.30
2018-10-12T21:33:33.410Z,20.30
2018-10-12T21:36:01.012Z,20.30
2018-10-12T21:38:28.687Z,20.30
2018-10-12T21:40:56.232Z,20.30
2018-10-12T21:43:23.824Z,20.40
2018-10-12T21:45:51.399Z,20.40
2018-10-12T21:48:18.900Z,20.40
2018-10-12T21:50:46.445Z,20.30
2018-10-12T21:53:13.942Z,20.30
2018-10-12T21:55:41.473Z,20.30
2018-10-12T21:58:09.018Z,20.20
2018-10-12T22:00:36.646Z,20.20
2018-10-12T22:03:04.248Z,20.10
2018-10-12T22:05:31.806Z,20.10
2018-10-12T22:07:59.418Z,20.10
2018-10-12T22:10:26.952Z,20.00
2018-10-12T22:12:54.444Z,20.00
2018-10-12T22:15:22.038Z,19.90
2018-10-12T22:17:49.624Z,19.90
2018-10-12T22:20:17.144Z,19.90
2018-10-12T22:22:44.626Z,19.80
2018-10-12T22:25:12.210Z,19.80
2018-10-12T22:27:39.733Z,19.80
2018-10-12T22:30:07.426Z,19.70
2018-10-12T22:32:34.960Z,19.60
2018-10-12T22:35:02.538Z,19.70
2018-10-12T22:37:30.041Z,19.60
2018-10-12T22:39:57.540Z,19.60
2018-10-12T22:42:24.996Z,19.60
2018-10-12T22:44:52.489Z,19.50
2018-10-12T22:47:20.013Z,19.50
2018-10-12T22:49:47.647Z,19.50
2018-10-12T22:52:15.132Z,19.50
2018-10-12T22:54:42.630Z,19.40
2018-10-12T22:57:10.134Z,19.40
2018-10-12T22:59:37.658Z,19.40
2018-10-12T23:02:05.177Z,19.40
2018-10-12T23:04:32.682Z,19.40
2018-10-12T23:07:00.173Z,19.40
2018-10-12T23:09:27.693Z,19.30
2018-10-12T23:11:55.178Z,19.40
2018-10-12T23:14:22.694Z,19.40
2018-10-12T23:16:50.205Z,19.30
2018-10-12T23:19:17.708Z,19.30
2018-10-12T23:21:45.230Z,19.30
2018-10-12T23:24:12.768Z,19.30
2018-10-12T23:26:40.308Z,19.30
2018-10-12T23:29:07.826Z,19.30
2018-10-12T23:31:35.377Z,19.30
2018-10-12T23:34:06.045Z,19.30
2018-10-12T23:36:33.582Z,19.30
2018-10-12T23:39:01.384Z,19.30
2018-10-12T23:41:28.922Z,19.30
2018-10-12T23:43:56.836Z,19.30
2018-10-12T23:46:24.614Z,19.30
2018-10-12T23:48:52.149Z,19.30
2018-10-12T23:51:19.671Z,19.20
2018-10-12T23:53:47.228Z,19.30
2018-10-12T23:56:14.788Z,19.20
2018-10-12T23:58:42.329Z,19.10
